createdAt,value
2019-03-28T00:00:31.924Z,102305.88
2019-03-28T00:05:34.372Z,102316.68
2019-03-28T00:10:36.918Z,102315.20
2019-03-28T00:15:39.319Z,102312.27
2019-03-28T00:20:41.792Z,102314.32
2019-03-28T00:25:44.257Z,102314.32
2019-03-28T00:30:46.728Z,102318.96
2019-03-28T00:35:49.209Z,102318.71
2019-03-28T00:40:51.680Z,102308.94
2019-03-28T00:45:54.131Z,102306.12
2019-03-28T00:50:56.606Z,102307.73
2019-03-28T00:55:59.075Z,102302.25
2019-03-28T01:01:01.541Z,102290.48
2019-03-28T01:06:04.003Z,102293.38
2019-03-28T01:11:06.474Z,102290.77
2019-03-28T01:16:08.938Z,102293.70
2019-03-28T01:21:11.404Z,102300.75
2019-03-28T01:26:13.867Z,102292.44
2019-03-28T01:31:16.331Z,102296.42
2019-03-28T01:36:18.802Z,102303.72
2019-03-28T01:41:21.248Z,102297.84
2019-03-28T01:46:23.748Z,102296.26
2019-03-28T01:51:26.208Z,102292.30
2019-03-28T01:56:28.665Z,102282.16
2019-03-28T02:01:31.153Z,102275.81
2019-03-28T02:06:34.187Z,102278.61
2019-03-28T02:11:36.091Z,102285.89
2019-03-28T02:16:38.553Z,102286.51
2019-03-28T02:21:41.014Z,102285.95
2019-03-28T02:26:43.476Z,102290.41
2019-03-28T02:31:45.921Z,102298.37
2019-03-28T02:36:48.401Z,102294.41
2019-03-28T02:41:50.895Z,102292.70
2019-03-28T02:46:53.364Z,102287.97
2019-03-28T02:51:55.882Z,102287.98
2019-03-28T02:56:58.313Z,102279.78
2019-03-28T03:02:00.807Z,102284.54
2019-03-28T03:07:03.269Z,102289.55
2019-03-28T03:12:05.731Z,102288.06
2019-03-28T03:17:08.254Z,102286.14
2019-03-28T03:22:10.747Z,102288.16
2019-03-28T03:27:13.232Z,102293.92
2019-03-28T03:32:15.708Z,102294.44
2019-03-28T03:37:18.164Z,102295.92
2019-03-28T03:42:20.642Z,102292.41
2019-03-28T03:47:23.112Z,102294.69
2019-03-28T03:52:25.578Z,102304.50
2019-03-28T03:57:28.050Z,102303.42
2019-03-28T04:02:30.509Z,102307.87
2019-03-28T04:07:32.988Z,102316.66
2019-03-28T04:12:35.449Z,102323.41
2019-03-28T04:17:37.932Z,102314.27
2019-03-28T04:22:40.400Z,102319.13
2019-03-28T04:27:42.864Z,102317.22
2019-03-28T04:32:45.340Z,102334.14
2019-03-28T04:37:47.801Z,102347.67
2019-03-28T04:42:50.267Z,102352.27
2019-03-28T04:47:52.755Z,102355.13
2019-03-28T04:52:55.230Z,102354.58
2019-03-28T04:57:57.691Z,102344.28
2019-03-28T05:03:00.168Z,102346.86
2019-03-28T05:08:02.643Z,102357.95
2019-03-28T05:13:05.104Z,102350.94
2019-03-28T05:18:07.565Z,102350.50
2019-03-28T05:23:10.095Z,102354.05
2019-03-28T05:28:12.566Z,102359.98
2019-03-28T05:33:15.032Z,102355.80
2019-03-28T05:38:17.513Z,102363.62
2019-03-28T05:43:19.996Z,102354.53
2019-03-28T05:48:22.485Z,102354.49
2019-03-28T05:53:24.960Z,102366.38
2019-03-28T05:58:27.431Z,102376.45
2019-03-28T06:03:29.914Z,102382.89
2019-03-28T06:08:32.390Z,102383.34
2019-03-28T06:13:34.858Z,102377.16
2019-03-28T06:18:37.320Z,102389.02
2019-03-28T06:23:39.786Z,102384.72
2019-03-28T06:28:42.250Z,102381.68
2019-03-28T06:33:44.723Z,102398.72
2019-03-28T06:38:47.194Z,102402.06
2019-03-28T06:43:49.659Z,102409.48
2019-03-28T06:48:52.134Z,102398.46
2019-03-28T06:53:57.071Z,102401.16
2019-03-28T06:58:57.076Z,102393.42
2019-03-28T07:03:59.534Z,102392.19
2019-03-28T07:09:02.010Z,102390.33
2019-03-28T07:14:04.536Z,102390.55
2019-03-28T07:19:07.001Z,102382.61
2019-03-28T07:24:09.514Z,102384.73
2019-03-28T07:29:11.985Z,102385.79
2019-03-28T07:34:14.478Z,102390.45
2019-03-28T07:39:19.115Z,102393.52
2019-03-28T07:44:19.442Z,102395.17
2019-03-28T07:49:21.911Z,102391.71
2019-03-28T07:54:24.386Z,102391.83
2019-03-28T07:59:26.876Z,102387.89
2019-03-28T08:04:29.383Z,102385.90
2019-03-28T08:09:36.790Z,102385.78
2019-03-28T08:14:34.327Z,102387.27
2019-03-28T08:19:37.617Z,102395.20
2019-03-28T08:24:39.289Z,102393.86
2019-03-28T08:29:41.772Z,102397.59
2019-03-28T08:34:44.764Z,102403.27
2019-03-28T08:39:46.725Z,102393.01
2019-03-28T08:44:49.212Z,102395.48
2019-03-28T08:49:51.741Z,102388.60
2019-03-28T08:54:54.229Z,102387.66
2019-03-28T08:59:56.718Z,102396.63
2019-03-28T09:04:59.190Z,102392.48
2019-03-28T09:10:01.665Z,102385.44
2019-03-28T09:15:07.178Z,102387.08
2019-03-28T09:20:09.655Z,102390.09
2019-03-28T09:25:12.485Z,102384.55
2019-03-28T09:30:14.585Z,102387.78
2019-03-28T09:35:17.058Z,102381.14
2019-03-28T09:40:19.529Z,102377.44
2019-03-28T09:45:22.011Z,102370.91
2019-03-28T09:50:24.486Z,102373.02
2019-03-28T09:55:26.973Z,102363.42
2019-03-28T10:00:32.571Z,102357.44
2019-03-28T10:05:31.953Z,102353.83
2019-03-28T10:10:34.446Z,102352.88
2019-03-28T10:15:37.291Z,102347.63
2019-03-28T10:20:39.602Z,102342.56
2019-03-28T10:25:42.077Z,102341.03
2019-03-28T10:30:44.966Z,102337.58
2019-03-28T10:35:47.230Z,102332.44
2019-03-28T10:40:49.702Z,102329.22
2019-03-28T10:45:52.174Z,102324.13
2019-03-28T10:50:54.651Z,102327.16
2019-03-28T10:55:57.128Z,102325.67
2019-03-28T11:00:59.612Z,102329.20
2019-03-28T11:06:02.090Z,102321.09
2019-03-28T11:11:04.552Z,102314.81
2019-03-28T11:16:07.029Z,102300.91
2019-03-28T11:21:09.528Z,102292.95
2019-03-28T11:26:11.991Z,102280.54
2019-03-28T11:31:14.468Z,102279.72
2019-03-28T11:36:16.928Z,102272.62
2019-03-28T11:41:19.390Z,102259.76
2019-03-28T11:46:21.873Z,102260.22
2019-03-28T11:51:24.321Z,102251.42
2019-03-28T11:56:26.812Z,102244.19
2019-03-28T12:01:29.301Z,102235.55
2019-03-28T12:06:31.755Z,102228.26
2019-03-28T12:11:34.221Z,102229.45
2019-03-28T12:16:36.698Z,102213.94
2019-03-28T12:21:39.162Z,102218.43
2019-03-28T12:26:41.658Z,102220.03
2019-03-28T12:31:44.124Z,102210.72
2019-03-28T12:36:46.592Z,102202.90
2019-03-28T12:41:49.071Z,102203.97
2019-03-28T12:46:51.543Z,102201.78
2019-03-28T12:51:54.043Z,102205.12
2019-03-28T12:56:58.166Z,102192.28
2019-03-28T13:01:58.973Z,102190.45
2019-03-28T13:07:01.461Z,102186.14
2019-03-28T13:12:03.936Z,102194.70
2019-03-28T13:17:06.398Z,102190.98
2019-03-28T13:22:08.877Z,102189.61
2019-03-28T13:27:11.425Z,102184.31
2019-03-28T13:32:13.791Z,102185.87
2019-03-28T13:37:16.277Z,102183.85
2019-03-28T13:42:18.737Z,102184.88
2019-03-28T13:47:21.238Z,102173.05
2019-03-28T13:52:23.689Z,102172.84
2019-03-28T13:57:26.143Z,102169.65
2019-03-28T14:02:28.617Z,102172.68
2019-03-28T14:07:31.080Z,102164.68
2019-03-28T14:12:33.515Z,102162.84
2019-03-28T14:17:35.969Z,102153.45
2019-03-28T14:22:38.413Z,102161.82
2019-03-28T14:27:40.858Z,102159.05
2019-03-28T14:32:53.097Z,102148.03
2019-03-28T14:37:45.894Z,102145.95
2019-03-28T14:42:48.357Z,102147.12
2019-03-28T14:47:50.806Z,102144.27
2019-03-28T14:52:53.270Z,102140.72
2019-03-28T14:57:55.747Z,102142.53
2019-03-28T15:02:58.198Z,102137.27
2019-03-28T15:08:00.651Z,102130.12
2019-03-28T15:13:03.101Z,102131.05
2019-03-28T15:18:05.548Z,102129.17
2019-03-28T15:23:08.024Z,102132.45
2019-03-28T15:28:10.503Z,102124.52
2019-03-28T15:33:12.932Z,102115.70
2019-03-28T15:38:15.377Z,102118.75
2019-03-28T15:43:17.859Z,102112.59
2019-03-28T15:48:20.374Z,102116.38
2019-03-28T15:53:23.185Z,102118.01
2019-03-28T15:58:25.244Z,102120.98
2019-03-28T16:03:27.701Z,102120.91
2019-03-28T16:08:30.162Z,102115.98
2019-03-28T16:13:32.633Z,102119.62
2019-03-28T16:18:35.097Z,102119.31
2019-03-28T16:23:37.613Z,102118.75
2019-03-28T16:28:40.732Z,102128.13
2019-03-28T16:33:42.521Z,102129.06
2019-03-28T16:38:45.725Z,102125.16
2019-03-28T16:43:47.418Z,102129.33
2019-03-28T16:48:49.879Z,102126.78
2019-03-28T16:53:52.339Z,102129.98
2019-03-28T16:58:55.521Z,102125.17
2019-03-28T17:03:57.255Z,102125.52
2019-03-28T17:08:59.698Z,102123.81
2019-03-28T17:14:02.162Z,102124.30
2019-03-28T17:19:04.648Z,102126.64
2019-03-28T17:24:07.077Z,102129.16
2019-03-28T17:29:09.557Z,102138.25
2019-03-28T17:34:12.025Z,102135.48
2019-03-28T17:39:14.481Z,102140.51
2019-03-28T17:44:16.957Z,102143.28
2019-03-28T17:49:19.407Z,102150.26
2019-03-28T17:54:21.898Z,102149.89
2019-03-28T17:59:24.353Z,102160.19
2019-03-28T18:04:26.839Z,102162.37
2019-03-28T18:09:29.298Z,102165.86
2019-03-28T18:14:31.781Z,102164.08
2019-03-28T18:19:34.234Z,102161.67
2019-03-28T18:24:36.703Z,102172.41
2019-03-28T18:29:39.168Z,102177.92
2019-03-28T18:34:41.621Z,102181.40
2019-03-28T18:39:44.104Z,102187.03
2019-03-28T18:44:46.560Z,102188.24
2019-03-28T18:49:49.015Z,102186.20
2019-03-28T18:54:51.466Z,102189.45
2019-03-28T18:59:53.912Z,102191.49
2019-03-28T19:04:56.623Z,102195.80
2019-03-28T19:09:58.899Z,102197.97
2019-03-28T19:15:01.387Z,102207.48
2019-03-28T19:20:06.555Z,102218.36
2019-03-28T19:25:09.343Z,102216.34
2019-03-28T19:30:12.474Z,102207.86
2019-03-28T19:35:14.018Z,102209.11
2019-03-28T19:40:16.503Z,102210.40
2019-03-28T19:45:35.866Z,102206.51
2019-03-28T19:50:36.454Z,102202.94
2019-03-28T19:55:40.069Z,102199.86
2019-03-28T20:00:41.393Z,102207.39
2019-03-28T20:05:47.895Z,102209.90
2019-03-28T20:10:46.345Z,102217.56
2019-03-28T20:15:48.799Z,102215.95
2019-03-28T20:20:51.280Z,102211.48
2019-03-28T20:25:53.745Z,102201.02
2019-03-28T20:30:56.350Z,102203.27
2019-03-28T20:36:12.005Z,102209.63
2019-03-28T20:41:01.144Z,102200.17
2019-03-28T20:46:03.630Z,102208.08
2019-03-28T20:51:06.176Z,102214.94
2019-03-28T20:56:08.576Z,102220.83
2019-03-28T21:01:14.066Z,102223.25
2019-03-28T21:06:19.382Z,102214.40
2019-03-28T21:11:19.001Z,102219.30
2019-03-28T21:16:21.466Z,102214.81
2019-03-28T21:21:24.382Z,102212.08
2019-03-28T21:26:26.595Z,102204.38
2019-03-28T21:31:29.047Z,102206.25
2019-03-28T21:36:32.279Z,102205.65
2019-03-28T21:41:33.969Z,102204.78
2019-03-28T21:46:36.423Z,102195.61
2019-03-28T21:51:38.856Z,102194.32
2019-03-28T21:56:41.641Z,102193.36
2019-03-28T22:01:43.786Z,102199.05
2019-03-28T22:06:46.306Z,102197.48
2019-03-28T22:11:48.709Z,102194.34
2019-03-28T22:16:51.193Z,102194.81
2019-03-28T22:21:53.663Z,102193.70
2019-03-28T22:26:56.176Z,102193.69
2019-03-28T22:31:58.653Z,102185.38
2019-03-28T22:37:03.656Z,102181.41
2019-03-28T22:42:03.567Z,102186.84
2019-03-28T22:47:06.167Z,102174.59
2019-03-28T22:52:08.486Z,102181.41
2019-03-28T22:57:11.019Z,102182.82
2019-03-28T23:02:13.473Z,102182.71
2019-03-28T23:07:15.958Z,102187.62
2019-03-28T23:12:18.394Z,102182.55
2019-03-28T23:17:21.048Z,102173.05
2019-03-28T23:22:23.292Z,102176.88
2019-03-28T23:27:26.931Z,102174.67
2019-03-28T23:32:28.184Z,102180.34
2019-03-28T23:37:30.646Z,102178.45
2019-03-28T23:42:33.100Z,102176.33
2019-03-28T23:47:35.562Z,102175.03
2019-03-28T23:52:38.015Z,102174.41
2019-03-28T23:57:40.469Z,102174.95
